Fushun, China
Current Conditions -  °F | °C
As of 1:30 AM on Sunday 26 Oct 2014 (Local Time) from ZYTX Reporting Station
Haze Haze  
Wind Chill: 59°   Ceiling: 3300
Heat Index: 59°   Visibility: 2.5mi
Dew Point: 52°   Wind: 20mph
Humidity: 77%   Direction: 310°NW
Pressure: 29.97"   Gusts: 31mph
Location:  41.87°N, 123.88°E
Report Text: ZYTX 251730Z 31009G14MPS 4000 BR OVC033 15/11 Q1015 NOSIG
Loading
Personal Weather Stations






























Interactive Weather Map
Tropical Storm Tracking
New forecast layout! Learn more

10-Day Weather Forecast

Advertisements
Track Severe Weather on mobile